Latest Weather Observations for Launceston

IDT60801

Issued at 4:35 am EST Thursday 28 August 2014 (issued every 30 minutes, with the page automatically refreshed every 10 minutes)

About weather observations | Map of weather stations | Latest weather observations for TAS | Other Formats
Station Details ID: 091237 Name: LAUNCESTON (TI TREE BEND) Lat: -41.42 Lon: 147.12 Height: 5.0 m
Data from the previous 72 hours. | See also: Recent months at Launceston
Date/Time
EST
Temp
°C
App
Temp
°C
Dew
Point
Rel
Hum
%
Delta-T
°C
Wind Press
QNH
hPa
Press
MSL
hPa
Rain
since 9 am
mm
Dir
 
Spd
km/h
Gust
km/h
Spd
kts
Gust
kts
28/04:30am 5.3 4.2 4.9 97 0.2 ENE 0 0 0 0 - - -
28/04:00am 5.0 3.8 4.6 97 0.2 ENE 0 0 0 0 - - -
28/03:30am 4.8 3.1 4.2 96 0.3 ENE 2 4 1 2 - - -
28/03:00am 4.9 3.6 4.3 96 0.3 CALM 0 0 0 0 - - 0.0
28/02:30am 5.0 3.8 4.4 96 0.3 CALM 0 0 0 0 - - -
28/02:00am 4.6 3.3 4.0 96 0.3 CALM 0 0 0 0 - - -
28/01:30am 4.4 3.1 4.0 97 0.2 CALM 0 0 0 0 - - -
28/01:00am 4.5 3.2 3.9 96 0.3 CALM 0 2 0 1 - - -
28/12:30am 4.6 3.3 4.0 96 0.3 CALM 0 4 0 2 - - -
28/12:00am 4.9 3.6 4.3 96 0.3 SE 0 2 0 1 - - -
 
Date/Time
EST
Temp
°C
App
Temp
°C
Dew
Point
Rel
Hum
%
Delta-T
°C
Wind Press
QNH
hPa
Press
MSL
hPa
Rain
since 9 am
mm
Dir
 
Spd
km/h
Gust
km/h
Spd
kts
Gust
kts
27/11:30pm 5.3 4.1 4.6 95 0.3 CALM 0 0 0 0 - - -
27/11:00pm 5.7 4.6 5.0 95 0.3 CALM 0 0 0 0 - - -
27/10:30pm 6.0 5.0 5.4 96 0.3 CALM 0 0 0 0 - - -
27/10:00pm 6.2 - - - - CALM 0 0 0 0 - - -
27/09:30pm 6.8 - - - - CALM 0 0 0 0 - - -
27/09:00pm 7.0 5.3 5.9 93 0.5 W 4 6 2 3 - - 0.0
27/08:30pm 8.0 6.9 6.8 92 0.6 N 2 4 1 2 - - -
27/08:00pm 8.2 7.1 7.0 92 0.6 W 2 6 1 3 - - -
27/07:30pm 9.2 8.6 7.5 89 0.8 CALM 0 0 0 0 - - -
27/07:00pm 9.3 7.8 6.9 85 1.1 NW 4 7 2 4 - - -
27/06:30pm 11.4 10.2 7.9 79 1.7 N 4 6 2 3 - - -
27/06:00pm 12.3 10.4 7.4 72 2.4 NW 7 9 4 5 - - -
27/05:30pm 13.6 11.4 8.0 69 2.8 NNW 9 13 5 7 - - -
27/05:00pm 14.9 12.9 8.6 66 3.2 NNW 9 13 5 7 - - -
27/04:30pm 15.9 14.1 9.6 66 3.3 NNW 9 15 5 8 - - -
27/04:00pm 16.5 13.4 8.7 60 4.0 NNW 15 24 8 13 - - -
27/03:30pm 16.8 13.4 9.0 60 4.0 NW 17 24 9 13 - - -
27/03:00pm 16.3 13.5 8.5 60 4.0 NNW 13 22 7 12 - - -
27/02:30pm 16.3 12.4 8.8 61 3.8 NW 19 26 10 14 - - -
27/02:00pm 16.3 13.4 9.5 64 3.5 NNW 15 24 8 13 - - -
27/01:30pm 17.3 14.6 10.2 63 3.8 NW 15 22 8 12 - - -
27/01:00pm 16.7 13.4 9.4 62 3.8 NW 17 26 9 14 - - -
27/12:30pm 17.2 14.5 10.3 64 3.7 NNW 15 22 8 12 - - -
27/12:00pm 16.7 14.6 11.2 70 3.0 NW 13 17 7 9 - - -
27/11:30am 15.0 13.9 11.8 81 1.7 - 9 11 5 6 - - -
27/09:30am 10.4 10.4 9.9 97 0.3 CALM 0 4 0 2 - - 0.0
27/09:00am 8.9 8.6 8.6 98 0.1 CALM 0 0 0 0 - - 0.0
27/08:30am 7.1 6.4 6.8 98 0.1 CALM 0 0 0 0 - - 0.0
27/08:00am 6.5 4.9 6.2 98 0.1 E 4 4 2 2 - - 0.0
27/07:30am 6.2 5.3 5.9 98 0.1 CALM 0 2 0 1 - - 0.0
27/07:00am 5.7 4.7 5.4 98 0.1 CALM 0 0 0 0 - - 0.0
27/06:30am 5.3 4.2 5.0 98 0.1 CALM 0 0 0 0 - - 0.0
27/06:00am 5.3 4.2 5.0 98 0.1 ENE 0 0 0 0 - - 0.0
27/05:30am 5.5 4.4 5.2 98 0.1 CALM 0 0 0 0 - - 0.0
27/05:00am 5.4 4.3 5.0 97 0.2 CALM 0 0 0 0 - - 0.0
27/04:30am 6.1 5.1 5.7 97 0.2 CALM 0 2 0 1 - - 0.0
27/04:00am 6.4 5.1 6.0 97 0.2 SE 2 4 1 2 - - 0.0
27/03:30am 6.7 5.9 6.3 97 0.2 CALM 0 0 0 0 - - 0.0
27/03:00am 6.6 5.3 6.2 97 0.2 ESE 2 2 1 1 - - 0.0
27/02:30am 6.8 5.6 6.4 97 0.2 E 2 4 1 2 - - 0.0
27/02:00am 7.3 6.6 6.9 97 0.2 CALM 0 0 0 0 - - 0.0
27/01:30am 7.5 6.8 7.1 97 0.2 CALM 0 0 0 0 - - 0.0
27/01:00am 7.6 6.9 7.0 96 0.3 CALM 0 0 0 0 - - 0.0
27/12:30am 8.3 7.8 7.7 96 0.3 CALM 0 0 0 0 - - 0.0
27/12:00am 8.3 7.3 7.5 95 0.4 N 2 4 1 2 - - 0.0
 
Date/Time
EST
Temp
°C
App
Temp
°C
Dew
Point
Rel
Hum
%
Delta-T
°C
Wind Press
QNH
hPa
Press
MSL
hPa
Rain
since 9 am
mm
Dir
 
Spd
km/h
Gust
km/h
Spd
kts
Gust
kts
26/11:30pm 9.4 8.7 8.6 95 0.4 WNW 2 4 1 2 - - 0.0
26/11:00pm 10.0 9.1 9.1 94 0.4 NNW 4 7 2 4 - - 0.0
26/10:30pm 10.3 9.1 9.4 94 0.4 NNW 6 9 3 5 - - 0.0
26/10:00pm 10.3 9.8 9.2 93 0.5 NNW 2 4 1 2 - - 0.0
26/09:30pm 10.6 9.4 9.4 92 0.6 NNW 6 9 3 5 - - 0.0
26/09:00pm 11.3 10.0 10.0 92 0.7 NNW 7 9 4 5 - - 0.0
26/08:30pm 11.6 10.3 10.0 90 0.8 N 7 9 4 5 - - 0.0
26/08:00pm 11.4 10.6 9.7 89 0.9 NNW 4 4 2 2 - - 0.0
26/07:30pm 11.8 10.5 9.9 88 1.0 WNW 7 9 4 5 - - 0.0
26/07:00pm 12.1 10.8 10.0 87 1.1 NW 7 9 4 5 - - 0.0
26/06:30pm 12.5 11.2 10.0 85 1.3 NNW 7 9 4 5 - - 0.0
26/06:00pm 14.4 13.1 11.4 82 1.6 N 9 13 5 7 - - 0.0
26/05:30pm 14.9 14.2 11.3 79 1.9 NNW 6 9 3 5 - - 0.0
26/05:00pm 15.3 14.5 11.7 79 1.9 NW 7 13 4 7 - - 0.0
26/04:30pm 15.8 14.9 11.2 74 2.5 NNW 7 9 4 5 - - 0.0
26/04:00pm 16.9 15.0 10.5 66 3.4 NNW 11 17 6 9 - - 0.0
26/03:30pm 17.6 15.4 10.7 64 3.7 NNW 13 17 7 9 - - 0.0
26/03:00pm 17.9 16.7 11.5 66 3.5 NNW 9 15 5 8 - - 0.0
26/02:30pm 17.9 16.8 12.1 69 3.2 NNW 9 13 5 7 - - 0.0
26/02:00pm 17.8 16.5 11.4 66 3.5 NW 9 13 5 7 - - 0.0
26/01:30pm 17.8 17.9 11.4 66 3.5 NE 2 7 1 4 - - 0.0
26/01:00pm 16.6 16.1 10.9 69 3.1 NNE 4 6 2 3 - - 0.0
26/12:30pm 15.4 14.8 10.4 72 2.6 NNE 4 9 2 5 - - 0.0
26/12:00pm 14.6 14.2 9.6 72 2.6 ENE 2 4 1 2 - - 0.0
26/11:30am 13.5 12.6 9.2 75 2.2 NNE 4 7 2 4 - - 0.0
26/11:00am 12.9 11.4 9.2 78 1.9 E 7 11 4 6 - - 0.0
26/10:30am 12.3 10.9 8.8 79 1.7 ENE 6 9 3 5 - - 0.0
26/10:00am 11.1 9.8 7.8 80 1.6 ENE 4 6 2 3 - - 0.0
26/09:30am 9.1 8.4 6.9 86 1.0 CALM 0 2 0 1 - - 0.0
26/09:00am 7.5 6.7 6.6 94 0.4 CALM 0 0 0 0 - - 0.0
26/08:30am 6.2 4.5 5.8 97 0.2 ENE 4 7 2 4 - - 0.0
26/08:00am 5.0 3.8 4.7 98 0.1 CALM 0 0 0 0 - - 0.0
26/07:30am 4.5 2.8 4.2 98 0.1 E 2 4 1 2 - - 0.0
26/07:00am 3.6 2.2 3.3 98 0.1 CALM 0 0 0 0 - - 0.0
26/06:30am 3.6 2.2 3.3 98 0.1 CALM 0 0 0 0 - - 0.0
26/06:00am 4.0 1.9 3.7 98 0.1 E 4 6 2 3 - - 0.0
26/05:30am 4.2 2.9 3.9 98 0.1 CALM 0 0 0 0 - - 0.0
26/05:00am 4.2 2.9 3.9 98 0.1 CALM 0 0 0 0 - - 0.0
26/04:30am 4.5 3.2 4.2 98 0.1 CALM 0 2 0 1 - - 0.0
26/04:00am 4.3 3.0 4.0 98 0.1 CALM 0 0 0 0 - - 0.0
26/03:30am 4.9 - - - - NNE 2 4 1 2 - - 0.0
26/03:00am 4.9 - - - - NE 2 4 1 2 - - 0.0
26/02:30am 5.1 - - - - CALM 0 0 0 0 - - 0.0
26/02:00am 5.3 - - - - CALM 0 0 0 0 - - 0.0
26/01:30am 5.6 - - - - CALM 0 0 0 0 - - 0.0
26/01:00am 5.7 - - - - CALM 0 0 0 0 - - 0.0
26/12:30am 6.6 - - - - CALM 0 0 0 0 - - 0.0
26/12:00am 7.4 6.3 7.0 97 0.2 ENE 2 4 1 2 - - 0.0
 
Date/Time
EST
Temp
°C
App
Temp
°C
Dew
Point
Rel
Hum
%
Delta-T
°C
Wind Press
QNH
hPa
Press
MSL
hPa
Rain
since 9 am
mm
Dir
 
Spd
km/h
Gust
km/h
Spd
kts
Gust
kts
25/11:30pm 7.1 6.3 6.5 96 0.3 CALM 0 0 0 0 - - 0.0
25/11:00pm 8.0 7.4 7.6 97 0.2 CALM 0 2 0 1 - - 0.0
25/10:30pm 8.4 7.5 7.8 96 0.3 E 2 4 1 2 - - 0.0
25/10:00pm 8.4 7.9 7.8 96 0.3 CALM 0 0 0 0 - - 0.0
25/09:30pm 8.4 7.8 7.6 95 0.4 CALM 0 2 0 1 - - 0.0
25/09:00pm 9.3 9.0 8.5 95 0.4 CALM 0 0 0 0 - - 0.0
25/08:30pm 10.2 10.1 9.4 95 0.4 CALM 0 0 0 0 - - 0.0
25/08:00pm 10.8 10.4 9.7 93 0.6 NW 2 4 1 2 - - 0.0
25/07:30pm 12.1 11.5 10.5 90 0.8 NNW 4 6 2 3 - - 0.0
25/07:00pm 13.2 12.4 10.9 86 1.2 N 6 7 3 4 - - 0.0
25/06:30pm 13.9 13.1 11.2 84 1.4 W 6 6 3 3 - - 0.0
25/06:00pm 13.7 14.0 11.0 84 1.4 CALM 0 6 0 3 - - 0.0
25/05:30pm 14.3 13.9 11.1 81 1.7 W 4 6 2 3 - - 0.0
25/05:00pm 14.8 14.4 11.2 79 1.9 W 4 6 2 3 - - 0.0
25/04:30pm 15.3 15.3 11.1 76 2.2 N 2 4 1 2 - - 0.0
25/04:00pm 15.8 14.8 10.3 70 2.9 NW 6 9 3 5 - - 0.0
25/03:30pm 16.3 15.6 10.2 67 3.2 S 4 9 2 5 - - 0.0
25/03:00pm 15.9 15.4 10.7 71 2.8 NW 4 7 2 4 - - 0.0
25/02:30pm 15.2 14.4 11.0 76 2.2 NNW 6 7 3 4 - - 0.0
25/02:00pm 15.0 14.0 10.2 73 2.5 N 6 9 3 5 - - 0.0
25/01:30pm 14.9 13.8 10.5 75 2.3 NNW 7 9 4 5 - - 0.0
25/01:00pm 14.3 13.2 10.1 76 2.2 NNW 6 11 3 6 - - 0.0
25/12:30pm 13.9 12.6 9.9 77 2.1 NNW 7 13 4 7 - - 0.0
25/12:00pm 16.0 15.2 9.7 66 3.3 ESE 4 7 2 4 - - 0.0
25/11:30am 15.8 15.4 11.0 73 2.6 NNE 4 7 2 4 - - 0.0
25/11:00am 13.9 13.0 9.1 73 2.4 NE 4 7 2 4 - - 0.0
25/10:30am 12.3 10.8 8.6 78 1.8 E 6 7 3 4 - - 0.0
25/10:00am 11.4 10.3 8.3 81 1.5 E 4 9 2 5 - - 0.0
25/09:30am 10.0 8.6 7.4 84 1.2 E 4 7 2 4 - - 0.0
25/09:00am 8.3 6.4 6.9 91 0.6 SSE 6 9 3 5 - - 3.4
25/08:30am 7.2 6.1 6.8 97 0.2 SSE 2 4 1 2 - - 3.4
25/08:00am 5.1 3.5 4.7 97 0.2 ESE 2 6 1 3 - - 3.4
25/07:30am 4.5 2.8 4.2 98 0.1 SSE 2 4 1 2 - - 3.4
25/07:00am 3.5 2.0 3.2 98 0.1 CALM 0 0 0 0 - - 3.4
25/06:30am 3.0 0.7 2.7 98 0.1 ESE 4 6 2 3 - - 3.2
25/06:00am 3.5 0.9 3.2 98 0.1 SE 6 9 3 5 - - 3.2
25/05:30am 3.6 1.8 3.3 98 0.1 ESE 2 6 1 3 - - 3.2
25/05:00am 3.8 1.6 3.5 98 0.1 ESE 4 7 2 4 - - 3.2

Other Formats:

Comma delimited format used in spreadsheet applications
http://www.bom.gov.au/fwo/IDT60801/IDT60801.94969.axf

JavaScript Object Notation format (JSON) in row-major order
http://www.bom.gov.au/fwo/IDT60801/IDT60801.94969.json